• Join FlightAware (Why Join?)
  • Login
  • US Flag 
11:33PM EST


 

Airport Tracker/Info


-or-


 

Live Flight TrackerFlight Track Log ✈ EJA839 ✈ 18-Jun-2013 ✈ KIAD - KCLT

Flight Track Log - Related Links

Times and Time Zones

All times are in EDT time to prevent confusion due to time zone crossing. See the EJA839 flight status page for this flight to view local times or setup timezone preferences in your user account.

Time Position Orientation Groundspeed Altitude Reporting Facility
EDT Latitude Longitude Course Direction KTS MPH feet Rate Location/Type
05:15PM 38.9000 -77.5667 210° Southwest 285 328 4,400  Level Potomac TRACON
05:16PM 38.8333 -77.6167 210° Southwest 285 328 7,000 1,500 Climbing Potomac TRACON
05:17PM 38.7500 -77.6333 189° South 292 336 7,500 1,140 Climbing Potomac TRACON
05:18PM 38.6869 -77.6661 202° Southwest 285 328 9,300 2,340 Climbing Washington Center
05:19PM 38.6072 -77.6931 195° South 285 328 12,100 2,520 Climbing Washington Center
05:20PM 38.5161 -77.7046 210° Southwest  Level FlightAware Approximate
05:20PM 38.5275 -77.7228 196° South 290 334 14,300  Level Washington Center
05:21PM 38.4786 -77.7797 222° Southwest 290 334 16,200 2,340 Climbing Washington Center
05:22PM 38.4244 -77.8894 238° Southwest 301 346 19,000 2,520 Climbing Washington Center
05:23PM 38.3747 -77.9833 236° Southwest 314 361 21,300 2,160 Climbing Washington Center
05:24PM 38.3269 -78.0744 236° Southwest 314 361 23,500 1,920 Climbing Washington Center
05:25PM 38.2669 -78.1517 225° Southwest 314 361 25,200 1,440 Climbing Washington Center
05:26PM 38.2136 -78.2106 221° Southwest 314 361 26,400 1,020 Climbing Washington Center
05:27PM 38.1303 -78.3003 220° Southwest 326 375 27,300 780 Climbing Washington Center
05:28PM 38.0594 -78.3794 221° Southwest 338 389 28,000 300 Climbing Washington Center
05:29PM 37.9931 -78.4533 221° Southwest 349 402 28,000  Level Washington Center
05:30PM 37.9139 -78.5372 220° Southwest 349 402 28,000  Level Washington Center
05:31PM 37.8283 -78.6283 220° Southwest 367 422 28,000  Level Washington Center
05:32PM 37.7467 -78.7144 220° Southwest 373 429 28,000  Level Washington Center
05:33PM 37.6694 -78.7978 221° Southwest 373 429 28,000  Level Washington Center
05:34PM 37.5900 -78.8836 221° Southwest 373 429 28,000  Level Washington Center
05:35PM 37.5192 -78.9564 219° Southwest 373 429 28,000  Level Washington Center
05:36PM 37.4397 -79.0392 220° Southwest 373 429 28,000  Level Washington Center
05:37PM 37.3600 -79.1244 220° Southwest 373 429 28,000  Level Washington Center
05:38PM 37.2803 -79.2069 219° Southwest 373 429 28,000  Level Washington Center
05:39PM 37.2008 -79.2789 216° Southwest 367 422 28,000  Level Washington Center
05:40PM 37.1131 -79.3503 213° Southwest 350 403 28,000  Level Washington Center
05:41PM 37.0339 -79.4167 214° Southwest 350 403 28,000  Level Washington Center
05:42PM 36.9525 -79.4828 213° Southwest 350 403 28,000  Level Washington Center
05:43PM 36.8708 -79.5514 214° Southwest 355 409 28,000 -240 Level Washington Center
05:44PM 36.7914 -79.6197 215° Southwest 355 409 27,600 -720 Descending Washington Center
05:45PM 36.7186 -79.6783 213° Southwest 362 417 26,600 -1,080 Descending Washington Center
05:46PM 36.6369 -79.7464 214° Southwest 362 417 25,500 -1,080 Descending Washington Center
05:47PM 36.5553 -79.8144 214° Southwest 362 417 24,500 -1,020 Descending Washington Center
05:48PM 36.4797 -79.8853 217° Southwest 356 410 23,500 -1,080 Descending Washington Center
05:49PM 36.4111 -80.0067 235° Southwest 334 384 22,100 -660 Descending Atlanta Center
05:50PM 36.4256 -80.1297 278° West 306 352 22,000 -60 Descending Atlanta Center
05:51PM 36.4353 -80.2375 276° West 312 359 22,000 -240 Level Atlanta Center
05:52PM 36.4450 -80.3508 276° West 322 371 21,600 -660 Descending Atlanta Center
05:53PM 36.4547 -80.4639 276° West 329 379 20,700 -840 Descending Atlanta Center
05:54PM 36.4364 -80.5550 256° West 301 346 20,000 -600 Descending Atlanta Center
05:55PM 36.3553 -80.5661 186° South 251 289 19,600 -780 Descending Atlanta Center
05:56PM 36.2653 -80.5469 170° South 282 325 18,500 -1,140 Descending Atlanta Center
05:57PM 36.1747 -80.5253 169° South 305 351 17,400 -1,620 Descending Atlanta Center
05:58PM 36.0717 -80.4886 164° South 340 391 15,300 -1,200 Descending Atlanta Center
05:59PM 35.9878 -80.4742 172° South 331 381 15,000 -480 Descending Atlanta Center
06:00PM 35.9058 -80.4597 172° South 310 357 14,400 -840 Descending Atlanta Center
06:01PM 35.8200 -80.4431 171° South 318 366 13,400 -1,380 Descending Atlanta Center
06:02PM 35.7544 -80.4819 206° Southwest 276 318 11,600 -1,200 Descending Atlanta Center
06:03PM 35.6789 -80.4697 173° South 276 318 11,000 -600 Descending Atlanta Center
06:04PM 35.6039 -80.4783 185° South 271 312 10,400 -660 Descending Atlanta Center
06:05PM 35.5356 -80.4939 190° South 256 295 9,700 -840 Descending Atlanta Center
06:06PM 35.4792 -80.5600 224° Southwest 255 293 8,800 -1,380 Descending Atlanta Center
06:07PM 35.4436 -80.6331 239° Southwest 249 287 7,000 -1,320 Descending Atlanta Center
06:08PM 35.4053 -80.6781 224° Southwest 222 255 6,200 -960 Descending Atlanta Center
06:09PM 35.3792 -80.7172 231° Southwest 171 197 5,100 -900 Descending Atlanta Center
06:11PM 35.3431 -80.7669 228° Southwest 144 166 4,100 -780 Descending Atlanta Center
06:12PM 35.3128 -80.8089 229° Southwest 167 192 3,300 -840 Descending Atlanta Center
06:13PM 35.2806 -80.8533 228° Southwest 182 209 2,400 -840 Descending Atlanta Center
06:14PM 35.2544 -80.8900 229° Southwest 139 160 1,700 -660 Descending Atlanta Center
06:15PM 35.2322 -80.9214 229° Southwest 97 112 1,000 -660 Descending Atlanta Center
06:17PM 35.2000 -80.9333 227° Southwest  Level FlightAware Approximate